createdAt,value
2018-02-16T00:00:08.687Z,95.8
2018-02-16T00:01:10.335Z,103.7
2018-02-16T00:02:11.986Z,103.1
2018-02-16T00:03:13.644Z,105.5
2018-02-16T00:04:15.301Z,103.3
2018-02-16T00:05:16.957Z,109.0
2018-02-16T00:06:18.609Z,97.8
2018-02-16T00:07:20.255Z,93.2
2018-02-16T00:08:21.895Z,81.0
2018-02-16T00:09:23.544Z,82.3
2018-02-16T00:10:25.310Z,92.0
2018-02-16T00:11:26.962Z,87.5
2018-02-16T00:12:28.614Z,84.3
2018-02-16T00:13:30.258Z,92.3
2018-02-16T00:14:31.912Z,90.2
2018-02-16T00:15:33.566Z,86.2
2018-02-16T00:16:35.211Z,89.6
2018-02-16T00:17:36.861Z,96.5
2018-02-16T00:18:38.511Z,82.6
2018-02-16T00:19:40.177Z,101.8
2018-02-16T00:20:41.838Z,113.3
2018-02-16T00:21:43.485Z,133.4
2018-02-16T00:22:45.190Z,150.7
2018-02-16T00:23:46.832Z,170.7
2018-02-16T00:24:48.487Z,178.3
2018-02-16T00:25:50.137Z,183.3
2018-02-16T00:26:51.792Z,189.4
2018-02-16T00:27:53.446Z,207.2
2018-02-16T00:28:55.096Z,283.7
2018-02-16T00:29:56.746Z,177.2
2018-02-16T00:30:58.399Z,384.7
2018-02-16T00:32:00.058Z,355.7
2018-02-16T00:33:01.705Z,284.9
2018-02-16T00:34:03.356Z,359.2
2018-02-16T00:35:05.009Z,396.4
2018-02-16T00:36:07.492Z,534.5
2018-02-16T00:37:09.138Z,323.8
2018-02-16T00:38:10.793Z,301.1
2018-02-16T00:39:12.456Z,309.1
2018-02-16T00:40:14.107Z,388.9
2018-02-16T00:41:15.761Z,398.4
2018-02-16T00:42:17.423Z,381.7
2018-02-16T00:43:19.070Z,438.8
2018-02-16T00:44:20.722Z,447.6
2018-02-16T00:45:22.377Z,478.1
2018-02-16T00:46:24.034Z,598.1
2018-02-16T00:47:25.686Z,502.5
2018-02-16T00:48:27.344Z,487.6
2018-02-16T00:49:28.989Z,424.4
2018-02-16T00:50:30.644Z,434.8
2018-02-16T00:51:32.282Z,520.0
2018-02-16T00:52:33.940Z,511.7
2018-02-16T00:53:35.594Z,461.7
2018-02-16T00:54:37.246Z,468.8
2018-02-16T00:55:38.900Z,459.7
2018-02-16T00:56:40.548Z,374.7
2018-02-16T00:57:42.205Z,389.7
2018-02-16T00:58:43.851Z,498.5
2018-02-16T00:59:45.530Z,432.7
2018-02-16T01:00:47.156Z,603.5
2018-02-16T01:01:48.816Z,547.5
2018-02-16T01:08:04.312Z,339.4
2018-02-16T01:09:05.964Z,381.1
2018-02-16T01:10:07.608Z,435.3
2018-02-16T01:11:09.253Z,404.8
2018-02-16T01:12:10.906Z,559.6
2018-02-16T01:13:12.542Z,426.0
2018-02-16T01:14:14.232Z,368.2
2018-02-16T01:15:15.876Z,349.7
2018-02-16T01:16:17.521Z,431.1
2018-02-16T01:17:19.170Z,547.3
2018-02-16T01:18:20.824Z,638.4
2018-02-16T01:19:22.492Z,366.3
2018-02-16T01:20:24.219Z,590.5
2018-02-16T01:21:25.873Z,360.0
2018-02-16T01:22:27.518Z,407.6
2018-02-16T01:23:29.168Z,381.0
2018-02-16T01:24:30.814Z,352.6
2018-02-16T01:25:32.461Z,311.3
2018-02-16T01:26:34.116Z,287.5
2018-02-16T01:27:35.774Z,239.2
2018-02-16T01:28:37.437Z,235.0
2018-02-16T01:29:39.079Z,248.8
2018-02-16T01:30:40.737Z,197.8
2018-02-16T01:31:42.379Z,200.8
2018-02-16T01:32:44.027Z,284.6
2018-02-16T01:33:45.681Z,342.5
2018-02-16T01:34:47.339Z,311.0
2018-02-16T01:35:48.996Z,318.9
2018-02-16T01:36:50.645Z,301.9
2018-02-16T01:37:52.296Z,284.4
2018-02-16T01:38:53.947Z,304.9
2018-02-16T01:39:55.603Z,272.1
2018-02-16T01:40:57.248Z,300.8
2018-02-16T01:41:58.898Z,276.5
2018-02-16T01:43:00.553Z,250.7
2018-02-16T01:44:02.278Z,224.6
2018-02-16T01:45:03.933Z,247.0
2018-02-16T01:46:05.601Z,219.2
2018-02-16T01:47:07.253Z,204.0
2018-02-16T01:48:08.904Z,231.2
2018-02-16T01:49:10.566Z,261.8
2018-02-16T01:50:12.221Z,229.0
2018-02-16T01:51:13.871Z,220.9
2018-02-16T01:52:15.518Z,191.1
2018-02-16T01:53:17.172Z,212.1
2018-02-16T01:54:18.814Z,211.7
2018-02-16T01:55:20.521Z,233.4
2018-02-16T01:56:22.173Z,288.1
2018-02-16T01:57:23.842Z,322.6
2018-02-16T01:58:25.495Z,388.8
2018-02-16T01:59:27.143Z,372.3
2018-02-16T02:00:28.793Z,421.6
2018-02-16T02:01:30.454Z,421.9
2018-02-16T02:02:32.103Z,578.8
2018-02-16T02:03:33.753Z,558.8
2018-02-16T02:04:35.408Z,647.9
2018-02-16T02:05:37.057Z,650.4
2018-02-16T02:06:38.708Z,454.3
2018-02-16T02:07:40.362Z,543.4
2018-02-16T02:08:42.011Z,454.8
2018-02-16T02:09:43.668Z,361.9
2018-02-16T02:10:45.340Z,686.8
2018-02-16T02:11:46.983Z,752.1
2018-02-16T02:12:48.693Z,822.6
2018-02-16T02:13:50.284Z,511.6
2018-02-16T02:14:51.921Z,513.8
2018-02-16T02:15:53.561Z,449.3
2018-02-16T02:16:55.213Z,456.3
2018-02-16T02:17:56.859Z,537.6
2018-02-16T02:18:58.504Z,557.4
2018-02-16T02:20:00.238Z,611.1
2018-02-16T02:21:01.891Z,597.6
2018-02-16T02:22:03.528Z,604.6
2018-02-16T02:23:05.173Z,582.5
2018-02-16T02:24:06.825Z,576.9
2018-02-16T02:25:08.484Z,395.3
2018-02-16T02:26:10.142Z,401.7
2018-02-16T02:27:11.785Z,590.6
2018-02-16T02:28:13.432Z,420.4
2018-02-16T02:29:15.090Z,421.9
2018-02-16T02:30:16.737Z,563.9
2018-02-16T02:31:18.377Z,514.0
2018-02-16T02:32:20.024Z,342.2
2018-02-16T02:33:21.683Z,393.9
2018-02-16T02:34:23.322Z,470.0
2018-02-16T02:35:24.969Z,395.6
2018-02-16T02:36:26.610Z,330.5
2018-02-16T02:37:28.256Z,390.7
2018-02-16T02:38:29.913Z,399.6
2018-02-16T02:39:31.559Z,533.7
2018-02-16T02:40:33.209Z,470.9
2018-02-16T02:41:34.850Z,450.5
2018-02-16T02:42:36.495Z,478.8
2018-02-16T02:43:38.141Z,516.4
2018-02-16T02:44:39.794Z,474.8
2018-02-16T02:45:41.442Z,455.7
2018-02-16T02:46:43.095Z,474.8
2018-02-16T02:47:44.743Z,541.7
2018-02-16T02:48:46.392Z,586.6
2018-02-16T02:49:48.104Z,508.2
2018-02-16T02:50:49.746Z,449.5
2018-02-16T02:51:51.399Z,480.8
2018-02-16T02:52:53.054Z,500.7
2018-02-16T02:53:54.696Z,412.4
2018-02-16T02:54:56.347Z,406.7
2018-02-16T03:01:14.034Z,307.1
2018-02-16T03:02:15.680Z,344.5
2018-02-16T03:03:17.321Z,353.4
2018-02-16T03:04:18.962Z,336.7
2018-02-16T03:05:20.605Z,279.9
2018-02-16T03:06:22.252Z,309.6
2018-02-16T03:07:23.898Z,319.9
2018-02-16T03:08:25.536Z,313.2
2018-02-16T03:09:27.180Z,179.7
2018-02-16T03:10:28.834Z,152.8
2018-02-16T03:11:30.480Z,197.5
2018-02-16T03:12:32.168Z,206.1
2018-02-16T03:13:33.820Z,165.4
2018-02-16T03:14:35.470Z,148.7
2018-02-16T03:15:37.113Z,162.6
2018-02-16T03:16:38.752Z,138.9
2018-02-16T03:17:40.398Z,152.0
2018-02-16T03:18:42.110Z,144.6
2018-02-16T03:19:43.655Z,157.9
2018-02-16T03:20:45.299Z,159.7
2018-02-16T03:21:46.942Z,182.7
2018-02-16T03:22:48.589Z,177.7
2018-02-16T03:23:50.334Z,252.2
2018-02-16T03:24:51.983Z,192.2
2018-02-16T03:25:53.630Z,189.2
2018-02-16T03:26:55.271Z,179.6
2018-02-16T03:27:56.931Z,149.2
2018-02-16T03:28:58.582Z,151.8
2018-02-16T03:30:00.239Z,131.4
2018-02-16T03:31:01.877Z,122.9
2018-02-16T03:32:03.529Z,124.0
2018-02-16T03:33:05.169Z,147.9
2018-02-16T03:34:06.814Z,169.1
2018-02-16T03:35:08.474Z,128.6
2018-02-16T03:36:10.123Z,143.2
2018-02-16T03:37:11.782Z,120.4
2018-02-16T03:38:13.430Z,147.4
2018-02-16T03:39:15.924Z,118.9
2018-02-16T03:40:17.571Z,158.4
2018-02-16T03:41:19.219Z,132.8
2018-02-16T03:42:20.882Z,116.2
2018-02-16T03:43:22.527Z,115.9
2018-02-16T03:44:24.169Z,112.6
2018-02-16T03:45:25.815Z,120.4
2018-02-16T03:46:27.446Z,117.3
2018-02-16T03:47:29.097Z,107.6
2018-02-16T03:48:30.745Z,107.1
2018-02-16T03:49:32.390Z,107.5
2018-02-16T03:50:34.037Z,124.8
2018-02-16T03:51:35.690Z,107.9
2018-02-16T03:52:37.338Z,110.8
2018-02-16T03:53:38.986Z,106.0
2018-02-16T03:54:40.637Z,114.2
2018-02-16T03:55:42.276Z,104.0
2018-02-16T03:56:43.928Z,118.6
2018-02-16T03:57:45.578Z,105.3
2018-02-16T03:58:47.220Z,94.5
2018-02-16T03:59:48.870Z,108.6
2018-02-16T04:00:50.520Z,116.2
2018-02-16T04:01:52.163Z,106.2
2018-02-16T04:02:53.816Z,102.1
2018-02-16T04:03:55.468Z,112.0
2018-02-16T04:04:57.187Z,104.4
2018-02-16T04:05:58.826Z,102.2
2018-02-16T04:07:00.473Z,97.5
2018-02-16T04:08:02.126Z,96.8
2018-02-16T04:09:03.764Z,91.0
2018-02-16T04:10:05.417Z,93.8
2018-02-16T04:11:07.060Z,89.4
2018-02-16T04:12:08.699Z,88.5
2018-02-16T04:13:10.345Z,94.9
2018-02-16T04:14:11.997Z,95.4
2018-02-16T04:15:13.642Z,88.2
2018-02-16T04:16:15.291Z,88.1
2018-02-16T04:17:16.939Z,86.6
2018-02-16T04:18:18.582Z,89.2
2018-02-16T04:19:20.221Z,91.8
2018-02-16T04:20:21.873Z,95.7
2018-02-16T04:21:23.511Z,95.3
2018-02-16T04:22:25.156Z,97.7
2018-02-16T04:23:26.801Z,99.5
2018-02-16T04:24:28.449Z,92.5
2018-02-16T04:25:30.101Z,101.1
2018-02-16T04:26:31.749Z,97.0
2018-02-16T04:27:33.399Z,104.7
2018-02-16T04:28:35.053Z,96.8
2018-02-16T04:29:36.692Z,105.7
2018-02-16T04:30:38.342Z,111.1
2018-02-16T04:31:39.998Z,105.4
2018-02-16T04:32:41.735Z,110.5
2018-02-16T04:33:43.381Z,95.9
2018-02-16T04:34:45.101Z,104.9
2018-02-16T04:35:46.749Z,114.2
2018-02-16T04:36:48.402Z,100.3
2018-02-16T04:37:50.054Z,108.9
2018-02-16T04:38:51.702Z,111.9
2018-02-16T04:39:53.339Z,97.3
2018-02-16T04:40:54.984Z,98.9
2018-02-16T04:41:56.640Z,105.5
2018-02-16T04:42:58.282Z,103.5
2018-02-16T04:43:59.935Z,101.5
2018-02-16T04:45:01.571Z,109.0
2018-02-16T04:46:03.217Z,97.7
2018-02-16T04:47:04.867Z,95.0
2018-02-16T04:48:06.518Z,98.3
2018-02-16T04:49:08.205Z,96.7
2018-02-16T04:50:09.847Z,89.2
2018-02-16T04:51:11.497Z,101.6
2018-02-16T04:52:13.153Z,97.9
2018-02-16T04:53:14.807Z,96.0
2018-02-16T04:54:16.449Z,95.8
2018-02-16T04:55:18.106Z,90.1
2018-02-16T04:56:19.755Z,97.2
2018-02-16T04:57:21.393Z,94.9
2018-02-16T04:58:23.048Z,97.1
2018-02-16T04:59:24.693Z,101.7
2018-02-16T05:00:26.345Z,91.6
2018-02-16T05:01:27.993Z,98.8
2018-02-16T05:02:29.643Z,91.8
2018-02-16T05:03:31.298Z,92.3
2018-02-16T05:04:32.938Z,107.1
2018-02-16T05:05:34.586Z,99.1
2018-02-16T05:06:36.241Z,100.0
2018-02-16T05:07:37.896Z,92.0
2018-02-16T05:08:39.543Z,96.4
2018-02-16T05:09:41.202Z,98.7
2018-02-16T05:10:42.845Z,92.6
2018-02-16T05:11:44.490Z,90.4
2018-02-16T05:12:46.137Z,91.2
2018-02-16T05:13:47.778Z,87.8
2018-02-16T05:14:49.421Z,104.5
2018-02-16T05:15:51.069Z,97.1
2018-02-16T05:16:52.750Z,95.0
2018-02-16T05:17:54.400Z,91.2
2018-02-16T05:18:56.045Z,88.9
2018-02-16T05:19:57.694Z,94.6
2018-02-16T05:20:59.338Z,96.2
2018-02-16T05:22:00.985Z,84.7
2018-02-16T05:23:02.635Z,89.6
2018-02-16T05:24:04.283Z,86.2
2018-02-16T05:25:05.988Z,86.7
2018-02-16T05:26:07.620Z,84.6
2018-02-16T05:27:09.266Z,87.5
2018-02-16T05:28:10.908Z,87.0
2018-02-16T05:29:12.566Z,85.4
2018-02-16T05:30:14.235Z,78.4
2018-02-16T05:31:15.886Z,75.2
2018-02-16T05:32:17.527Z,83.1
2018-02-16T05:33:19.173Z,76.8
2018-02-16T05:34:20.822Z,74.3
2018-02-16T05:35:22.479Z,67.6
2018-02-16T05:36:24.132Z,77.6
2018-02-16T05:37:25.772Z,66.8
2018-02-16T05:38:27.444Z,60.0
2018-02-16T05:39:29.155Z,63.1
2018-02-16T05:40:30.788Z,68.0
2018-02-16T05:41:32.440Z,65.5
2018-02-16T05:42:34.084Z,77.2
2018-02-16T05:43:35.734Z,70.6
2018-02-16T05:44:37.436Z,68.5
2018-02-16T05:45:39.084Z,67.1
2018-02-16T05:46:40.736Z,68.7
2018-02-16T05:47:42.388Z,70.4
2018-02-16T05:48:44.033Z,72.3
2018-02-16T05:49:45.679Z,77.6
2018-02-16T05:50:47.318Z,83.0
2018-02-16T05:51:48.965Z,80.2
2018-02-16T05:52:50.607Z,72.8
2018-02-16T05:53:52.273Z,72.2
2018-02-16T05:54:53.911Z,57.6
2018-02-16T05:55:55.555Z,49.6
2018-02-16T05:56:57.207Z,53.0
2018-02-16T05:57:58.848Z,54.7
2018-02-16T05:59:00.498Z,56.7
2018-02-16T06:00:02.194Z,60.2
2018-02-16T06:01:03.840Z,48.5
2018-02-16T06:02:05.498Z,49.6
2018-02-16T06:03:07.148Z,61.0
2018-02-16T06:04:08.818Z,66.6
2018-02-16T06:05:10.463Z,65.7
2018-02-16T06:06:12.125Z,55.1
2018-02-16T06:07:13.782Z,64.1
2018-02-16T06:08:15.665Z,66.1
2018-02-16T06:09:17.359Z,68.7
2018-02-16T06:10:19.173Z,67.5
2018-02-16T06:11:20.830Z,73.7
2018-02-16T06:12:22.476Z,78.7
2018-02-16T06:13:24.123Z,78.2
2018-02-16T06:14:25.772Z,75.6
2018-02-16T06:15:27.439Z,67.7
2018-02-16T06:16:29.083Z,68.4
2018-02-16T06:17:30.737Z,60.9
2018-02-16T06:18:32.378Z,62.6
2018-02-16T06:19:34.016Z,68.0
2018-02-16T06:20:35.673Z,75.6
2018-02-16T06:21:37.323Z,77.8
2018-02-16T06:22:38.975Z,64.5
2018-02-16T06:23:40.642Z,68.0
2018-02-16T06:24:42.316Z,61.4
2018-02-16T06:25:43.932Z,68.5
2018-02-16T06:26:45.587Z,67.1
2018-02-16T06:27:47.232Z,72.0
2018-02-16T06:28:48.886Z,73.9
2018-02-16T06:29:50.540Z,79.9
2018-02-16T06:30:52.189Z,73.1
2018-02-16T06:31:53.864Z,76.9
2018-02-16T06:32:55.517Z,88.8
2018-02-16T06:33:57.153Z,82.3
2018-02-16T06:34:58.821Z,74.9
2018-02-16T06:36:00.471Z,79.5
2018-02-16T06:37:02.118Z,78.6
2018-02-16T06:38:03.765Z,71.0
2018-02-16T06:39:05.409Z,65.1
2018-02-16T06:40:07.065Z,71.0
2018-02-16T06:41:08.710Z,65.6
2018-02-16T06:42:10.378Z,67.1
2018-02-16T06:43:12.085Z,72.1
2018-02-16T06:44:13.734Z,70.6
2018-02-16T06:45:15.392Z,70.5
2018-02-16T06:46:17.654Z,71.7
2018-02-16T06:47:19.311Z,105.8
2018-02-16T06:48:20.961Z,97.2
2018-02-16T06:49:22.601Z,87.6
2018-02-16T06:50:24.275Z,83.1
2018-02-16T06:51:25.899Z,96.0
2018-02-16T06:52:27.559Z,101.3
2018-02-16T06:53:29.204Z,109.0
2018-02-16T06:54:30.846Z,81.1
2018-02-16T06:55:32.491Z,79.9
2018-02-16T07:02:04.857Z,90.9
2018-02-16T07:03:06.495Z,78.5
2018-02-16T07:04:58.460Z,80.3
2018-02-16T07:06:00.101Z,86.0
2018-02-16T07:07:52.054Z,85.2
2018-02-16T07:08:53.699Z,84.8
2018-02-16T07:10:45.633Z,84.8
2018-02-16T07:11:47.283Z,81.2
2018-02-16T07:13:39.080Z,79.3
2018-02-16T07:14:40.721Z,80.5
2018-02-16T07:16:32.597Z,85.3
2018-02-16T07:17:34.246Z,90.3
2018-02-16T07:18:35.893Z,90.0
2018-02-16T07:19:37.543Z,88.7
2018-02-16T07:20:39.197Z,95.1
2018-02-16T07:21:40.852Z,98.3
2018-02-16T07:22:42.497Z,111.9
2018-02-16T07:23:44.157Z,103.9
2018-02-16T07:24:45.804Z,92.0
2018-02-16T07:25:47.456Z,86.3
2018-02-16T07:26:49.112Z,90.9
2018-02-16T07:27:50.767Z,89.1
2018-02-16T07:28:52.420Z,92.5
2018-02-16T07:29:54.153Z,83.3
2018-02-16T07:30:55.796Z,92.7
2018-02-16T07:31:57.444Z,89.3
2018-02-16T07:32:59.096Z,93.8
2018-02-16T07:34:00.744Z,92.2
2018-02-16T07:35:02.406Z,87.8
2018-02-16T07:36:04.051Z,94.9
2018-02-16T07:37:05.716Z,91.9
2018-02-16T07:38:07.382Z,95.1
2018-02-16T07:39:09.036Z,96.1
2018-02-16T07:40:10.685Z,85.5
2018-02-16T07:41:12.347Z,90.7
2018-02-16T07:42:13.994Z,90.0
2018-02-16T07:43:15.645Z,93.9
2018-02-16T07:44:17.298Z,98.0
2018-02-16T07:45:18.962Z,96.8
2018-02-16T07:46:20.623Z,104.2
2018-02-16T07:47:22.300Z,90.9
2018-02-16T07:48:23.951Z,92.0
2018-02-16T07:49:25.604Z,97.7
2018-02-16T07:50:27.283Z,87.1
2018-02-16T07:51:28.945Z,85.2
2018-02-16T07:52:30.610Z,85.8
2018-02-16T07:53:32.257Z,97.1
2018-02-16T07:54:33.915Z,94.6
2018-02-16T07:55:35.571Z,104.2
2018-02-16T07:56:37.225Z,108.4
2018-02-16T07:57:38.880Z,116.8
2018-02-16T07:58:40.529Z,105.8
2018-02-16T07:59:42.186Z,102.4
2018-02-16T08:00:43.833Z,99.1
2018-02-16T08:01:45.487Z,101.2
2018-02-16T08:02:47.144Z,109.0
2018-02-16T08:03:48.796Z,118.2
2018-02-16T08:04:50.449Z,101.3
2018-02-16T08:05:52.103Z,99.1
2018-02-16T08:06:53.754Z,94.6
2018-02-16T08:07:55.407Z,93.9
2018-02-16T08:08:57.058Z,90.2
2018-02-16T08:09:58.724Z,88.7
2018-02-16T08:11:00.378Z,84.3
2018-02-16T08:12:02.032Z,80.3
2018-02-16T08:13:03.689Z,73.6
2018-02-16T08:14:05.347Z,67.6
2018-02-16T08:15:07.008Z,63.3
2018-02-16T08:16:08.663Z,63.9
2018-02-16T08:17:10.320Z,68.6
2018-02-16T08:18:11.969Z,57.3
2018-02-16T08:19:13.624Z,53.5
2018-02-16T08:20:15.285Z,64.5
2018-02-16T08:21:16.939Z,50.1
2018-02-16T08:22:18.622Z,51.8
2018-02-16T08:23:20.256Z,45.0
2018-02-16T08:24:21.913Z,49.4
2018-02-16T08:25:23.568Z,42.5
2018-02-16T08:26:25.226Z,43.6
2018-02-16T08:27:26.877Z,48.7
2018-02-16T08:28:28.531Z,53.4
2018-02-16T08:29:30.182Z,50.7
2018-02-16T08:30:31.836Z,46.4
2018-02-16T08:31:33.492Z,47.1
2018-02-16T08:32:35.146Z,40.6
2018-02-16T08:33:36.806Z,47.2
2018-02-16T08:34:38.455Z,43.3
2018-02-16T08:35:40.111Z,46.2
2018-02-16T08:36:41.761Z,46.5
2018-02-16T08:37:43.418Z,43.3
2018-02-16T08:38:45.073Z,48.0
2018-02-16T08:39:46.736Z,39.8
2018-02-16T08:40:48.415Z,46.7
2018-02-16T08:41:50.155Z,41.6
2018-02-16T08:42:51.799Z,41.0
2018-02-16T08:43:53.452Z,40.4
2018-02-16T08:44:55.104Z,40.4
2018-02-16T08:45:56.761Z,46.7
2018-02-16T08:46:58.419Z,47.7
2018-02-16T08:48:00.214Z,51.1
2018-02-16T08:49:01.937Z,47.3
2018-02-16T08:50:03.589Z,43.5
2018-02-16T08:51:05.243Z,53.9
2018-02-16T08:52:06.913Z,44.5
2018-02-16T08:53:08.568Z,41.8
2018-02-16T08:54:10.270Z,39.7
2018-02-16T08:55:11.926Z,37.2
2018-02-16T08:56:13.666Z,40.4
2018-02-16T08:57:15.329Z,42.4
2018-02-16T08:58:16.986Z,39.3
2018-02-16T08:59:18.744Z,38.4
2018-02-16T09:00:20.395Z,37.9
2018-02-16T09:01:22.041Z,43.0
2018-02-16T09:02:23.708Z,40.8
2018-02-16T09:03:25.365Z,34.9
2018-02-16T09:04:27.010Z,34.2
2018-02-16T09:05:28.681Z,37.3
2018-02-16T09:06:30.342Z,44.6
2018-02-16T09:07:31.989Z,37.7
2018-02-16T09:08:33.679Z,38.6
2018-02-16T09:09:35.338Z,39.8
2018-02-16T09:10:36.994Z,39.3
2018-02-16T09:11:38.656Z,38.7
2018-02-16T09:12:40.309Z,35.2
2018-02-16T09:13:41.982Z,36.2
2018-02-16T09:14:43.651Z,43.6
2018-02-16T09:15:45.326Z,31.3
2018-02-16T09:16:46.965Z,50.2
2018-02-16T09:17:48.615Z,46.1
2018-02-16T09:18:50.275Z,38.2
2018-02-16T09:19:51.937Z,29.5
2018-02-16T09:20:53.598Z,33.3
2018-02-16T09:21:55.264Z,31.6
2018-02-16T09:22:56.908Z,33.5
2018-02-16T09:23:58.626Z,23.2
2018-02-16T09:25:00.282Z,25.5
2018-02-16T09:26:01.936Z,26.8
2018-02-16T09:27:03.596Z,26.9
2018-02-16T09:28:05.258Z,32.3
2018-02-16T09:29:06.914Z,29.4
2018-02-16T09:30:08.579Z,27.6
2018-02-16T09:31:10.246Z,22.7
2018-02-16T09:32:11.910Z,23.2
2018-02-16T09:33:13.575Z,27.5
2018-02-16T09:34:15.238Z,21.7
2018-02-16T09:35:16.895Z,24.3
2018-02-16T09:36:18.559Z,25.5
2018-02-16T09:37:20.216Z,26.4
2018-02-16T09:38:21.864Z,24.3
2018-02-16T09:39:23.525Z,28.0
2018-02-16T09:40:25.178Z,20.6
2018-02-16T09:41:26.839Z,27.6
2018-02-16T09:42:28.512Z,20.4
2018-02-16T09:43:30.213Z,26.6
2018-02-16T09:44:31.875Z,24.6
2018-02-16T09:45:33.537Z,24.6
2018-02-16T09:46:35.202Z,29.9
2018-02-16T09:47:36.868Z,26.7
2018-02-16T09:48:38.525Z,25.6
2018-02-16T09:49:40.179Z,25.1
2018-02-16T09:50:41.835Z,27.4
2018-02-16T09:51:43.483Z,30.9
2018-02-16T09:52:45.164Z,23.7
2018-02-16T09:53:46.891Z,23.1
2018-02-16T09:54:48.585Z,22.9
2018-02-16T09:55:50.243Z,23.5
2018-02-16T09:56:51.891Z,22.6
2018-02-16T09:57:53.549Z,21.4
2018-02-16T09:58:55.219Z,23.8
2018-02-16T09:59:56.870Z,24.4
2018-02-16T10:00:58.523Z,23.9
2018-02-16T10:02:00.184Z,21.1
2018-02-16T10:03:01.837Z,24.7
2018-02-16T10:04:03.512Z,23.3
2018-02-16T10:05:05.167Z,29.1
2018-02-16T10:06:06.838Z,21.0
2018-02-16T10:07:08.546Z,25.7
2018-02-16T10:08:10.154Z,20.1
2018-02-16T10:09:11.804Z,26.9
2018-02-16T10:10:13.466Z,22.3
2018-02-16T10:11:15.129Z,18.5
2018-02-16T10:12:16.785Z,19.3
2018-02-16T10:13:18.446Z,19.1
2018-02-16T10:14:20.106Z,23.3
2018-02-16T10:15:21.762Z,24.7
2018-02-16T10:16:23.424Z,21.3
2018-02-16T10:17:25.170Z,26.3
2018-02-16T10:18:26.839Z,23.8
2018-02-16T10:19:28.499Z,24.6
2018-02-16T10:20:30.158Z,23.1
2018-02-16T10:21:31.824Z,18.4
2018-02-16T10:22:33.492Z,22.9
2018-02-16T10:23:35.175Z,23.1
2018-02-16T10:24:36.927Z,20.5
2018-02-16T10:25:38.593Z,23.2
2018-02-16T10:26:40.262Z,23.2
2018-02-16T10:27:41.931Z,24.2
2018-02-16T10:28:43.590Z,23.4
2018-02-16T10:29:45.307Z,21.6
2018-02-16T10:30:46.972Z,23.0
2018-02-16T10:31:48.635Z,26.7
2018-02-16T10:32:50.316Z,20.9
2018-02-16T10:33:52.012Z,21.1
2018-02-16T10:34:53.677Z,33.2
2018-02-16T10:35:55.391Z,22.3
2018-02-16T10:36:57.035Z,29.1
2018-02-16T10:37:58.709Z,21.4
2018-02-16T10:39:00.372Z,28.3
2018-02-16T10:40:02.032Z,22.6
2018-02-16T10:41:03.693Z,21.0
2018-02-16T10:42:05.367Z,29.3
2018-02-16T10:43:07.039Z,23.5
2018-02-16T10:44:08.710Z,25.3
2018-02-16T10:45:10.377Z,23.2
2018-02-16T10:46:12.039Z,28.4
2018-02-16T10:47:13.700Z,34.0
2018-02-16T10:48:15.363Z,28.1
2018-02-16T10:49:17.042Z,24.0
2018-02-16T10:50:18.707Z,28.8
2018-02-16T10:51:20.380Z,29.5
2018-02-16T10:52:22.039Z,25.3
2018-02-16T10:53:23.815Z,27.5
2018-02-16T10:54:25.473Z,27.2
2018-02-16T10:55:27.142Z,27.6
2018-02-16T11:01:34.793Z,21.6
2018-02-16T11:02:36.449Z,26.1
2018-02-16T11:04:28.216Z,24.8
2018-02-16T11:05:29.873Z,25.4
2018-02-16T11:06:31.538Z,22.2
2018-02-16T11:07:33.191Z,21.0
2018-02-16T11:08:34.842Z,20.7
2018-02-16T11:09:36.506Z,24.2
2018-02-16T11:10:38.168Z,27.3
2018-02-16T11:11:39.835Z,25.9
2018-02-16T11:12:41.500Z,28.2
2018-02-16T11:13:43.162Z,32.3
2018-02-16T11:14:44.817Z,24.4
2018-02-16T11:15:46.480Z,24.4
2018-02-16T11:16:48.140Z,21.5
2018-02-16T11:17:49.805Z,22.3
2018-02-16T11:18:51.471Z,25.7
2018-02-16T11:19:53.135Z,24.4
2018-02-16T11:20:54.798Z,26.4
2018-02-16T11:21:56.455Z,25.6
2018-02-16T11:22:58.124Z,25.4
2018-02-16T11:23:59.783Z,26.8
2018-02-16T11:25:01.450Z,24.9
2018-02-16T11:26:03.138Z,25.3
2018-02-16T11:27:04.800Z,25.7
2018-02-16T11:28:06.450Z,19.6
2018-02-16T11:29:08.115Z,20.2
2018-02-16T11:30:09.775Z,22.5
2018-02-16T11:31:11.443Z,20.8
2018-02-16T11:32:13.099Z,23.4
2018-02-16T11:33:14.755Z,25.5
2018-02-16T11:34:16.420Z,27.1
2018-02-16T11:35:18.088Z,24.3
2018-02-16T11:36:19.784Z,23.6
2018-02-16T11:37:21.442Z,25.2
2018-02-16T11:38:23.109Z,19.9
2018-02-16T11:39:24.787Z,21.3
2018-02-16T11:40:26.447Z,21.4
2018-02-16T11:41:28.095Z,22.6
2018-02-16T11:42:29.757Z,22.9
2018-02-16T11:43:31.415Z,20.5
2018-02-16T11:44:33.082Z,19.2
2018-02-16T11:45:34.734Z,23.9
2018-02-16T11:46:36.389Z,22.1
2018-02-16T11:47:38.054Z,18.4
2018-02-16T11:48:39.709Z,22.9
2018-02-16T11:49:41.372Z,23.5
2018-02-16T11:50:43.038Z,23.8
2018-02-16T11:51:44.703Z,23.2
2018-02-16T11:52:46.365Z,25.3
2018-02-16T11:53:48.018Z,26.5
2018-02-16T11:54:49.679Z,18.7
2018-02-16T11:55:51.331Z,22.7
2018-02-16T11:56:52.990Z,22.2
2018-02-16T11:57:54.635Z,21.7
2018-02-16T11:58:56.294Z,21.6
2018-02-16T11:59:57.955Z,24.2
2018-02-16T12:00:59.611Z,26.2
2018-02-16T12:02:01.280Z,20.3
2018-02-16T12:03:02.935Z,27.6
2018-02-16T12:04:04.599Z,24.5
2018-02-16T12:05:06.259Z,19.8
2018-02-16T12:06:07.918Z,18.4
2018-02-16T12:07:09.572Z,22.3
2018-02-16T12:08:11.234Z,16.5
2018-02-16T12:09:12.893Z,19.0
2018-02-16T12:10:14.558Z,17.7
2018-02-16T12:11:16.222Z,13.9
2018-02-16T12:12:17.883Z,19.9
2018-02-16T12:13:19.543Z,18.9
2018-02-16T12:14:21.208Z,13.7
2018-02-16T12:15:22.872Z,19.3
2018-02-16T12:16:24.533Z,13.8
2018-02-16T12:17:26.201Z,14.8
2018-02-16T12:18:27.861Z,16.9
2018-02-16T12:19:29.518Z,18.7
2018-02-16T12:20:31.194Z,16.2
2018-02-16T12:21:32.855Z,17.1
2018-02-16T12:22:34.517Z,15.4
2018-02-16T12:23:36.176Z,19.9
2018-02-16T12:24:37.835Z,12.4
2018-02-16T12:25:39.512Z,15.2
2018-02-16T12:26:41.172Z,16.6
2018-02-16T12:27:42.865Z,19.5
2018-02-16T12:28:44.557Z,14.4
2018-02-16T12:29:46.225Z,16.3
2018-02-16T12:30:47.891Z,18.2
2018-02-16T12:31:49.546Z,14.4
2018-02-16T12:32:51.205Z,12.7
2018-02-16T12:33:52.875Z,15.5
2018-02-16T12:34:54.538Z,13.8
2018-02-16T12:35:56.202Z,12.7
2018-02-16T12:36:57.885Z,14.9
2018-02-16T12:37:59.533Z,13.8
2018-02-16T12:39:01.195Z,15.0
2018-02-16T12:40:02.874Z,15.4
2018-02-16T12:41:04.562Z,16.1
2018-02-16T12:42:06.223Z,15.8
2018-02-16T12:43:07.891Z,12.6
2018-02-16T12:44:09.570Z,12.8
2018-02-16T12:45:11.233Z,16.4
2018-02-16T12:46:12.891Z,13.9
2018-02-16T12:47:14.659Z,14.8
2018-02-16T12:48:16.359Z,13.6
2018-02-16T12:49:18.017Z,11.1
2018-02-16T12:50:19.690Z,14.4
2018-02-16T12:51:21.393Z,13.6
2018-02-16T12:52:23.025Z,13.8
2018-02-16T12:53:24.685Z,13.0
2018-02-16T12:54:26.345Z,14.1
2018-02-16T12:55:28.014Z,13.4
2018-02-16T12:56:29.688Z,10.6
2018-02-16T12:57:31.357Z,11.1
2018-02-16T12:58:33.014Z,14.0
2018-02-16T12:59:34.702Z,13.0
2018-02-16T13:00:36.364Z,14.4
2018-02-16T13:01:38.030Z,12.2
2018-02-16T13:02:39.732Z,9.0
2018-02-16T13:03:41.359Z,15.1
2018-02-16T13:04:43.019Z,11.8
2018-02-16T13:05:44.695Z,13.5
2018-02-16T13:06:46.367Z,15.0
2018-02-16T13:07:48.396Z,13.2
2018-02-16T13:08:50.055Z,12.8
2018-02-16T13:09:51.710Z,17.4
2018-02-16T13:10:53.384Z,22.4
2018-02-16T13:11:55.040Z,18.0
2018-02-16T13:12:56.706Z,20.8
2018-02-16T13:13:58.378Z,8.0
2018-02-16T13:15:00.044Z,15.4
2018-02-16T13:16:01.722Z,15.8
2018-02-16T13:17:03.387Z,10.5
2018-02-16T13:18:05.055Z,13.5
2018-02-16T13:19:06.756Z,11.3
2018-02-16T13:20:08.432Z,18.8
2018-02-16T13:21:10.094Z,14.5
2018-02-16T13:22:11.759Z,14.6
2018-02-16T13:23:13.435Z,12.3
2018-02-16T13:24:15.120Z,14.4
2018-02-16T13:25:16.751Z,12.8
2018-02-16T13:26:18.420Z,14.4
2018-02-16T13:27:20.085Z,9.7
2018-02-16T13:28:21.750Z,12.5
2018-02-16T13:29:23.408Z,13.2
2018-02-16T13:30:25.070Z,15.9
2018-02-16T13:31:26.739Z,12.2
2018-02-16T13:32:28.441Z,9.6
2018-02-16T13:33:30.114Z,14.6
2018-02-16T13:34:31.774Z,12.4
2018-02-16T13:35:33.444Z,11.9
2018-02-16T13:36:35.133Z,12.1
2018-02-16T13:37:36.789Z,13.0
2018-02-16T13:38:38.454Z,8.6
2018-02-16T13:39:40.131Z,11.9
2018-02-16T13:40:41.808Z,18.4
2018-02-16T13:41:43.479Z,14.5
2018-02-16T13:42:45.138Z,12.7
2018-02-16T13:43:46.830Z,13.8
2018-02-16T13:44:48.489Z,14.1
2018-02-16T13:45:50.157Z,11.2
2018-02-16T13:46:51.827Z,13.5
2018-02-16T13:47:53.483Z,15.1
2018-02-16T13:48:55.164Z,17.8
2018-02-16T13:49:56.853Z,12.4
2018-02-16T13:50:58.499Z,10.5
2018-02-16T13:52:00.234Z,11.8
2018-02-16T13:53:01.904Z,14.2
2018-02-16T13:54:03.576Z,15.3
2018-02-16T13:55:05.297Z,17.3
2018-02-16T13:56:06.961Z,16.6
2018-02-16T13:57:08.633Z,11.9
2018-02-16T13:58:10.294Z,12.0